createdAt,value
2019-06-07T00:05:01.905Z,13
2019-06-07T00:10:04.464Z,12.8
2019-06-07T00:15:11.488Z,12.7
2019-06-07T00:20:13.335Z,12.7
2019-06-07T00:25:14.790Z,12.7
2019-06-07T00:30:40.446Z,12.6
2019-06-07T00:35:19.320Z,12.7
2019-06-07T00:40:28.542Z,12.6
2019-06-07T00:45:23.906Z,12.5
2019-06-07T00:50:24.496Z,12.5
2019-06-07T00:55:27.591Z,12.5
2019-06-07T01:00:28.940Z,12.6
2019-06-07T01:05:31.745Z,12.6
2019-06-07T01:10:52.106Z,12.5
2019-06-07T01:15:36.292Z,12.3
2019-06-07T01:20:38.896Z,12.2
2019-06-07T01:25:43.539Z,12
2019-06-07T01:30:43.651Z,12
2019-06-07T01:35:46.132Z,11.9
2019-06-07T01:40:48.580Z,11.8
2019-06-07T01:45:51.164Z,11.8
2019-06-07T01:50:53.488Z,11.7
2019-06-07T01:55:55.949Z,11.5
2019-06-07T02:00:58.398Z,11.5
2019-06-07T02:06:00.894Z,11.4
2019-06-07T02:11:03.319Z,11.3
2019-06-07T02:16:05.763Z,11.3
2019-06-07T02:21:08.230Z,11.1
2019-06-07T02:26:10.708Z,11
2019-06-07T02:31:13.170Z,10.9
2019-06-07T02:36:15.628Z,10.9
2019-06-07T02:41:18.064Z,10.9
2019-06-07T02:46:26.158Z,10.9
2019-06-07T02:51:24.315Z,11.1
2019-06-07T02:56:38.903Z,11.2
2019-06-07T03:01:31.248Z,11.4
2019-06-07T03:06:34.149Z,11.5
2019-06-07T03:11:35.982Z,11.6
2019-06-07T03:16:37.181Z,11.9
2019-06-07T03:21:41.428Z,11.9
2019-06-07T03:27:23.941Z,12
2019-06-07T03:31:47.292Z,12.1
2019-06-07T03:36:45.094Z,12.2
2019-06-07T03:42:05.005Z,12.2
2019-06-07T03:46:50.007Z,12.3
2019-06-07T03:51:52.616Z,12.4
2019-06-07T03:56:54.931Z,12.6
2019-06-07T04:01:57.427Z,12.7
2019-06-07T04:07:01.091Z,12.8
2019-06-07T04:12:02.319Z,12.9
2019-06-07T04:17:04.900Z,13.1
2019-06-07T04:22:07.252Z,13.2
2019-06-07T04:27:09.702Z,13.4
2019-06-07T04:32:12.187Z,13.5
2019-06-07T04:37:14.652Z,13.6
2019-06-07T04:42:17.150Z,13.7
2019-06-07T04:47:19.505Z,13.7
2019-06-07T04:52:21.986Z,13.8
2019-06-07T04:57:24.560Z,13.9
2019-06-07T05:02:26.916Z,14
2019-06-07T05:07:30.869Z,14
2019-06-07T05:12:32.604Z,14.1
2019-06-07T05:17:34.694Z,14.2
2019-06-07T05:22:40.601Z,14.3
2019-06-07T05:27:42.274Z,14.5
2019-06-07T05:32:45.295Z,14.7
2019-06-07T05:37:45.922Z,14.8
2019-06-07T05:42:46.920Z,14.9
2019-06-07T05:47:50.901Z,15
2019-06-07T05:52:51.470Z,14.9
2019-06-07T05:57:53.942Z,15
2019-06-07T06:03:04.596Z,15
2019-06-07T06:07:58.941Z,15
2019-06-07T06:13:01.302Z,15
2019-06-07T06:18:03.824Z,15
2019-06-07T06:23:06.268Z,15.1
2019-06-07T06:28:11.911Z,15.3
2019-06-07T06:33:27.406Z,15.8
2019-06-07T06:38:13.626Z,16.1
2019-06-07T06:43:16.078Z,16.5
2019-06-07T06:48:18.535Z,16.9
2019-06-07T06:53:21.052Z,17.2
2019-06-07T06:58:23.444Z,17.5
2019-06-07T07:08:28.387Z,17.4
2019-06-07T07:13:30.849Z,17.4
2019-06-07T07:18:33.324Z,17.7
2019-06-07T07:23:35.818Z,18.2
2019-06-07T07:28:38.236Z,18.4
2019-06-07T07:38:45.501Z,18.6
2019-06-07T07:43:51.779Z,18.8
2019-06-07T07:48:48.472Z,19.1
2019-06-07T07:54:00.508Z,19.2
2019-06-07T07:58:55.988Z,19.4
2019-06-07T08:03:56.515Z,19.4
2019-06-07T08:08:58.991Z,19.6
2019-06-07T08:14:00.295Z,19.8
2019-06-07T08:19:04.213Z,19.9
2019-06-07T08:24:05.592Z,20.1
2019-06-07T08:29:07.837Z,20.3
2019-06-07T08:34:10.124Z,20.6
2019-06-07T08:39:12.592Z,21.1
2019-06-07T08:44:23.134Z,22.1
2019-06-07T08:49:17.554Z,22.9
2019-06-07T08:54:22.605Z,23.6
2019-06-07T08:59:22.429Z,23.4
2019-06-07T09:04:24.966Z,23.4
2019-06-07T09:09:27.424Z,23.4
2019-06-07T09:14:29.808Z,23.5
2019-06-07T09:19:32.268Z,24.6
2019-06-07T09:24:34.740Z,26.6
2019-06-07T09:29:37.215Z,28.3
2019-06-07T09:34:39.795Z,29.6
2019-06-07T09:44:44.582Z,30.9
2019-06-07T09:49:47.030Z,31.2
2019-06-07T09:55:19.421Z,33.1
2019-06-07T09:59:51.992Z,33.8
2019-06-07T10:04:54.520Z,34.9
2019-06-07T10:10:12.230Z,35.2
2019-06-07T10:15:00.555Z,34.8
2019-06-07T10:20:02.478Z,34.5
2019-06-07T10:25:04.456Z,33.8
2019-06-07T10:30:08.048Z,33
2019-06-07T10:35:10.086Z,31.9
2019-06-07T10:40:11.674Z,30.5
2019-06-07T10:45:14.147Z,29.4
2019-06-07T10:50:16.658Z,28.3
2019-06-07T11:05:25.152Z,28
2019-06-07T11:10:26.440Z,28.7
2019-06-07T11:15:28.886Z,29.4
2019-06-07T11:20:31.297Z,29.6
2019-06-07T11:25:33.771Z,29.1
2019-06-07T11:30:36.359Z,28.4
2019-06-07T11:35:38.711Z,28.8
2019-06-07T11:45:43.611Z,30.4
2019-06-07T11:50:46.073Z,30.9
2019-06-07T11:55:48.617Z,31.4
2019-06-07T12:00:51.051Z,31.4
2019-06-07T12:05:53.625Z,31.4
2019-06-07T12:10:55.872Z,30.5
2019-06-07T12:15:58.459Z,29.5
2019-06-07T12:21:00.827Z,28.7
2019-06-07T12:26:03.388Z,28.2
2019-06-07T12:31:05.847Z,28.1
2019-06-07T12:36:08.209Z,27.7
2019-06-07T12:41:10.624Z,27.5
2019-06-07T12:46:17.060Z,28.8
2019-06-07T12:51:17.107Z,29.4
2019-06-07T12:56:18.049Z,29.6
2019-06-07T13:01:20.934Z,29
2019-06-07T13:06:23.676Z,28.1
2019-06-07T13:11:29.409Z,27
2019-06-07T13:16:28.437Z,26.1
2019-06-07T13:21:30.315Z,25.7
2019-06-07T13:26:32.791Z,25.6
2019-06-07T13:31:35.301Z,25.5
2019-06-07T13:36:37.710Z,25.7
2019-06-07T13:41:42.756Z,26.2
2019-06-07T13:46:42.632Z,25.6
2019-06-07T13:51:45.082Z,25.5
2019-06-07T13:57:01.165Z,25.1
2019-06-07T14:01:50.098Z,24.7
2019-06-07T14:06:52.502Z,24.4
2019-06-07T14:11:54.936Z,24.3
2019-06-07T14:16:57.966Z,24.4
2019-06-07T14:21:59.907Z,24.8
2019-06-07T14:27:02.292Z,25
2019-06-07T14:32:04.761Z,25.4
2019-06-07T14:37:07.242Z,25.6
2019-06-07T14:42:10.538Z,25.6
2019-06-07T14:47:12.158Z,25.4
2019-06-07T14:52:14.903Z,25.3
2019-06-07T14:57:17.058Z,25
2019-06-07T15:02:19.501Z,24.8
2019-06-07T15:07:21.973Z,24.6
2019-06-07T15:12:25.755Z,24.5
2019-06-07T15:17:26.933Z,24.4
2019-06-07T15:22:30.170Z,24.3
2019-06-07T15:27:31.794Z,24.2
2019-06-07T15:32:35.551Z,23.9
2019-06-07T15:37:36.783Z,23.5
2019-06-07T15:42:49.625Z,23.3
2019-06-07T15:47:41.688Z,23.4
2019-06-07T15:52:44.092Z,23.5
2019-06-07T15:57:46.542Z,23.5
2019-06-07T16:02:49.044Z,23.3
2019-06-07T16:07:51.577Z,23.2
2019-06-07T16:12:59.985Z,23.1
2019-06-07T16:17:56.447Z,23.1
2019-06-07T16:22:58.892Z,23.1
2019-06-07T16:28:01.347Z,23.2
2019-06-07T16:33:03.801Z,23.1
2019-06-07T16:38:06.325Z,23.2
2019-06-07T16:43:16.502Z,23.2
2019-06-07T16:48:11.162Z,23.1
2019-06-07T16:53:13.608Z,23
2019-06-07T16:58:16.093Z,22.7
2019-06-07T17:03:18.592Z,22.6
2019-06-07T17:08:21.073Z,22.6
2019-06-07T17:13:32.745Z,22.6
2019-06-07T17:18:25.977Z,22.6
2019-06-07T17:23:28.368Z,22.6
2019-06-07T17:28:30.824Z,22.5
2019-06-07T17:33:33.262Z,22.5
2019-06-07T17:38:35.744Z,22.3
2019-06-07T17:43:49.177Z,22.1
2019-06-07T17:48:41.416Z,21.9
2019-06-07T17:53:43.842Z,21.8
2019-06-07T17:58:46.372Z,21.7
2019-06-07T18:03:49.129Z,21.6
2019-06-07T18:08:51.638Z,21.5
2019-06-07T18:14:08.370Z,21.4
2019-06-07T18:18:57.050Z,21.2
2019-06-07T18:23:58.642Z,21.1
2019-06-07T18:29:00.359Z,20.9
2019-06-07T18:34:02.801Z,20.7
2019-06-07T18:39:05.232Z,20.4
2019-06-07T18:44:20.685Z,20.2
2019-06-07T18:49:10.159Z,20.1
2019-06-07T18:54:12.626Z,19.9
2019-06-07T18:59:15.101Z,19.8
2019-06-07T19:04:17.506Z,19.6
2019-06-07T19:09:19.977Z,19.5
2019-06-07T19:14:36.237Z,19.4
2019-06-07T19:19:24.906Z,19.3
2019-06-07T19:24:27.673Z,19.2
2019-06-07T19:34:32.293Z,18.9
2019-06-07T19:39:34.730Z,18.8
2019-06-07T19:44:49.632Z,18.8
2019-06-07T19:49:39.689Z,18.7
2019-06-07T19:54:42.115Z,18.7
2019-06-07T19:59:44.558Z,18.7
2019-06-07T20:04:47.050Z,18.7
2019-06-07T20:09:49.493Z,18.6
2019-06-07T20:14:53.979Z,18.6
2019-06-07T20:19:54.426Z,18.6
2019-06-07T20:24:56.861Z,18.6
2019-06-07T20:30:00.119Z,18.6
2019-06-07T20:35:01.905Z,18.5
2019-06-07T20:40:19.391Z,18.5
2019-06-07T20:45:07.949Z,18.6
2019-06-07T20:50:09.162Z,18.6
2019-06-07T20:55:11.711Z,18.6
2019-06-07T21:00:20.888Z,18.5
2019-06-07T21:05:16.518Z,18.5
2019-06-07T21:10:19.067Z,18.5
2019-06-07T21:15:21.430Z,18.5
2019-06-07T21:20:24.050Z,18.5
2019-06-07T21:25:26.352Z,18.5
2019-06-07T21:30:28.836Z,18.5
2019-06-07T21:35:31.304Z,18.5
2019-06-07T21:40:33.786Z,18.5
2019-06-07T21:45:36.299Z,18.5
2019-06-07T21:50:38.645Z,18.5
2019-06-07T21:55:41.192Z,18.5
2019-06-07T22:00:43.652Z,18.4
2019-06-07T22:05:48.545Z,18.4
2019-06-07T22:10:48.525Z,18.4
2019-06-07T22:15:50.968Z,18.4
2019-06-07T22:20:53.415Z,18.3
2019-06-07T22:25:55.844Z,18.2
2019-06-07T22:30:58.295Z,18.1
2019-06-07T22:36:00.797Z,18.1
2019-06-07T22:41:03.249Z,18.2
2019-06-07T22:46:06.692Z,18.4
2019-06-07T22:51:09.331Z,18.5
2019-06-07T22:56:11.589Z,18.5
2019-06-07T23:01:14.454Z,18.5
2019-06-07T23:06:16.698Z,18.5
2019-06-07T23:11:19.390Z,18.5
2019-06-07T23:16:20.439Z,18.5
2019-06-07T23:21:22.886Z,18.6
2019-06-07T23:26:25.336Z,18.8
2019-06-07T23:31:27.794Z,19
2019-06-07T23:36:30.265Z,19.2
2019-06-07T23:41:32.719Z,19.4
2019-06-07T23:46:35.185Z,19.4
2019-06-07T23:51:37.681Z,19.2
2019-06-07T23:56:40.099Z,18.7
